createdAt,value
2018-12-10T00:02:21.181Z,53.03
2018-12-10T00:04:49.505Z,54.44
2018-12-10T00:07:17.900Z,53.05
2018-12-10T00:09:46.205Z,53.23
2018-12-10T00:12:14.840Z,55.13
2018-12-10T00:14:43.164Z,54.38
2018-12-10T00:17:11.594Z,53.96
2018-12-10T00:19:39.866Z,54.62
2018-12-10T00:22:08.182Z,54.04
2018-12-10T00:24:36.734Z,55.00
2018-12-10T00:27:05.126Z,51.51
2018-12-10T00:29:33.427Z,55.91
2018-12-10T00:32:01.845Z,56.95
2018-12-10T00:34:30.482Z,55.77
2018-12-10T00:36:59.413Z,54.15
2018-12-10T00:39:27.734Z,54.08
2018-12-10T00:41:56.077Z,54.95
2018-12-10T00:44:24.395Z,55.56
2018-12-10T00:46:53.333Z,52.52
2018-12-10T00:49:21.609Z,55.49
2018-12-10T00:51:50.005Z,54.23
2018-12-10T00:54:18.297Z,53.50
2018-12-10T00:56:46.839Z,52.78
2018-12-10T00:59:15.085Z,53.20
2018-12-10T01:01:43.404Z,55.67
2018-12-10T01:04:12.086Z,55.22
2018-12-10T01:06:40.516Z,53.43
2018-12-10T01:09:08.954Z,55.19
2018-12-10T01:11:37.302Z,54.13
2018-12-10T01:14:05.621Z,57.07
2018-12-10T01:16:33.969Z,56.31
2018-12-10T01:19:02.246Z,56.83
2018-12-10T01:21:30.746Z,55.71
2018-12-10T01:23:59.002Z,54.87
2018-12-10T01:26:27.316Z,54.36
2018-12-10T01:28:55.820Z,53.25
2018-12-10T01:31:24.164Z,56.77
2018-12-10T01:33:52.621Z,55.64
2018-12-10T01:36:20.903Z,53.66
2018-12-10T01:38:49.250Z,54.68
2018-12-10T01:41:17.570Z,52.24
2018-12-10T01:43:45.932Z,52.48
2018-12-10T01:46:14.221Z,54.07
2018-12-10T01:48:42.547Z,54.75
2018-12-10T01:51:10.885Z,51.87
2018-12-10T01:53:39.233Z,54.91
2018-12-10T01:56:07.596Z,51.81
2018-12-10T01:58:35.892Z,54.42
2018-12-10T02:01:04.207Z,53.92
2018-12-10T02:03:32.550Z,55.51
2018-12-10T02:06:00.956Z,54.09
2018-12-10T02:08:29.329Z,52.78
2018-12-10T02:10:57.748Z,52.36
2018-12-10T02:13:26.069Z,54.87
2018-12-10T02:15:54.440Z,53.50
2018-12-10T02:18:22.768Z,53.86
2018-12-10T02:20:52.530Z,52.45
2018-12-10T02:23:21.244Z,51.49
2018-12-10T02:25:49.716Z,52.90
2018-12-10T02:28:22.153Z,52.82
2018-12-10T02:30:50.396Z,52.81
2018-12-10T02:33:18.765Z,51.15
2018-12-10T02:35:47.166Z,53.42
2018-12-10T02:38:15.656Z,51.54
2018-12-10T02:40:44.083Z,52.41
2018-12-10T02:43:12.541Z,51.77
2018-12-10T02:45:40.904Z,52.09
2018-12-10T02:48:09.169Z,51.72
2018-12-10T02:50:37.464Z,53.45
2018-12-10T02:53:05.682Z,50.31
2018-12-10T02:55:33.945Z,50.66
2018-12-10T02:58:02.277Z,51.72
2018-12-10T03:00:30.605Z,50.02
2018-12-10T03:03:00.938Z,49.79
2018-12-10T03:05:29.429Z,53.45
2018-12-10T03:07:57.896Z,51.26
2018-12-10T03:10:26.353Z,51.60
2018-12-10T03:12:54.702Z,50.84
2018-12-10T03:15:23.131Z,51.82
2018-12-10T03:17:51.566Z,51.32
2018-12-10T03:20:19.876Z,52.47
2018-12-10T03:22:48.245Z,53.39
2018-12-10T03:25:16.732Z,52.49
2018-12-10T03:27:45.002Z,51.68
2018-12-10T03:30:13.460Z,49.66
2018-12-10T03:32:41.837Z,53.70
2018-12-10T03:35:10.166Z,55.28
2018-12-10T03:37:38.510Z,51.88
2018-12-10T03:40:06.863Z,53.66
2018-12-10T03:42:35.139Z,54.33
2018-12-10T03:45:03.411Z,54.44
2018-12-10T03:47:31.776Z,50.59
2018-12-10T03:50:00.156Z,53.71
2018-12-10T03:52:28.453Z,51.62
2018-12-10T03:54:56.732Z,53.15
2018-12-10T03:57:25.130Z,54.23
2018-12-10T03:59:53.622Z,52.29
2018-12-10T04:02:21.929Z,50.50
2018-12-10T04:04:53.139Z,52.23
2018-12-10T04:07:25.760Z,51.33
2018-12-10T04:09:54.086Z,54.36
2018-12-10T04:12:22.384Z,53.96
2018-12-10T04:14:50.807Z,54.95
2018-12-10T04:17:19.125Z,56.64
2018-12-10T04:19:47.617Z,56.75
2018-12-10T04:22:15.954Z,54.15
2018-12-10T04:24:45.732Z,54.56
2018-12-10T04:27:14.303Z,55.89
2018-12-10T04:29:42.570Z,54.59
2018-12-10T04:32:11.069Z,54.65
2018-12-10T04:34:39.355Z,55.40
2018-12-10T04:37:07.856Z,54.68
2018-12-10T04:39:36.320Z,53.06
2018-12-10T04:42:04.851Z,55.65
2018-12-10T04:44:33.394Z,54.77
2018-12-10T04:47:02.052Z,52.85
2018-12-10T04:49:30.615Z,52.83
2018-12-10T04:51:58.889Z,54.29
2018-12-10T04:54:27.292Z,53.49
2018-12-10T04:56:55.697Z,52.93
2018-12-10T04:59:24.058Z,55.06
2018-12-10T05:01:52.402Z,56.98
2018-12-10T05:04:20.809Z,55.30
2018-12-10T05:06:49.068Z,55.76
2018-12-10T05:09:17.560Z,54.13
2018-12-10T05:11:46.135Z,51.92
2018-12-10T05:14:14.659Z,54.69
2018-12-10T05:16:42.878Z,55.71
2018-12-10T05:19:11.185Z,54.08
2018-12-10T05:21:39.580Z,54.82
2018-12-10T05:24:07.943Z,55.57
2018-12-10T05:26:36.213Z,54.28
2018-12-10T05:29:04.749Z,55.04
2018-12-10T05:31:33.086Z,54.90
2018-12-10T05:34:01.395Z,54.63
2018-12-10T05:36:29.728Z,53.61
2018-12-10T05:38:58.022Z,52.97
2018-12-10T05:41:26.455Z,51.79
2018-12-10T05:43:54.852Z,52.51
2018-12-10T05:46:23.240Z,54.72
2018-12-10T05:48:51.583Z,53.82
2018-12-10T05:51:20.095Z,55.11
2018-12-10T05:53:48.410Z,51.94
2018-12-10T05:56:16.850Z,51.55
2018-12-10T05:58:45.412Z,51.45
2018-12-10T06:01:13.664Z,49.87
2018-12-10T06:03:41.998Z,52.28
2018-12-10T06:06:10.481Z,50.94
2018-12-10T06:08:38.751Z,49.24
2018-12-10T06:11:07.242Z,52.25
2018-12-10T06:13:35.582Z,53.18
2018-12-10T06:16:03.976Z,51.40
2018-12-10T06:18:32.556Z,52.51
2018-12-10T06:21:00.916Z,50.51
2018-12-10T06:23:29.191Z,50.96
2018-12-10T06:25:57.513Z,52.36
2018-12-10T06:28:26.366Z,51.31
2018-12-10T06:30:54.673Z,51.88
2018-12-10T06:33:22.997Z,54.71
2018-12-10T06:35:51.398Z,52.05
2018-12-10T06:38:19.707Z,53.77
2018-12-10T06:40:48.056Z,52.16
2018-12-10T06:43:16.362Z,54.68
2018-12-10T06:45:44.634Z,55.65
2018-12-10T06:48:12.910Z,52.80
2018-12-10T06:50:41.196Z,53.61
2018-12-10T06:53:09.662Z,52.46
2018-12-10T06:55:37.922Z,54.86
2018-12-10T06:58:06.889Z,55.08
2018-12-10T07:00:35.224Z,53.77
2018-12-10T07:03:04.132Z,54.76
2018-12-10T07:05:32.526Z,56.02
2018-12-10T07:08:00.750Z,55.79
2018-12-10T07:10:29.059Z,54.31
2018-12-10T07:12:57.356Z,54.92
2018-12-10T07:15:25.695Z,56.21
2018-12-10T07:17:54.027Z,54.49
2018-12-10T07:20:22.319Z,53.83
2018-12-10T07:22:50.703Z,56.44
2018-12-10T07:25:19.002Z,54.61
2018-12-10T07:27:47.315Z,54.74
2018-12-10T07:30:15.744Z,54.52
2018-12-10T07:32:44.035Z,53.96
2018-12-10T07:35:12.314Z,53.86
2018-12-10T07:37:40.673Z,53.86
2018-12-10T07:40:08.962Z,55.12
2018-12-10T07:42:37.241Z,53.81
2018-12-10T07:45:06.328Z,54.44
2018-12-10T07:47:34.723Z,54.96
2018-12-10T07:50:03.246Z,51.05
2018-12-10T07:52:31.689Z,52.51
2018-12-10T07:54:59.974Z,52.28
2018-12-10T07:57:28.277Z,53.01
2018-12-10T07:59:56.675Z,52.69
2018-12-10T08:02:24.968Z,52.00
2018-12-10T08:04:53.303Z,52.20
2018-12-10T08:07:21.715Z,54.19
2018-12-10T08:09:50.086Z,53.89
2018-12-10T08:12:18.467Z,52.15
2018-12-10T08:14:46.762Z,53.62
2018-12-10T08:17:15.093Z,52.43
2018-12-10T08:19:43.994Z,52.94
2018-12-10T08:22:12.270Z,49.69
2018-12-10T08:24:40.584Z,52.08
2018-12-10T08:27:09.631Z,51.53
2018-12-10T08:29:38.079Z,52.01
2018-12-10T08:32:06.384Z,48.65
2018-12-10T08:37:05.048Z,51.31
2018-12-10T08:39:14.916Z,50.38
2018-12-10T08:39:33.462Z,51.65
2018-12-10T08:42:01.729Z,54.26
2018-12-10T08:44:30.151Z,48.77
2018-12-10T08:46:58.537Z,49.23
2018-12-10T08:49:26.844Z,49.97
2018-12-10T08:51:55.177Z,51.50
2018-12-10T08:54:24.615Z,50.86
2018-12-10T08:56:52.914Z,50.65
2018-12-10T08:59:21.475Z,51.60
2018-12-10T09:01:49.784Z,48.07
2018-12-10T09:04:18.083Z,49.57
2018-12-10T09:06:46.552Z,50.58
2018-12-10T09:09:14.899Z,50.42
2018-12-10T09:11:43.221Z,49.90
2018-12-10T09:14:11.600Z,48.89
2018-12-10T09:16:39.925Z,49.72
2018-12-10T09:19:08.265Z,50.07
2018-12-10T09:21:36.611Z,49.51
2018-12-10T09:24:04.913Z,50.46
2018-12-10T09:26:33.257Z,49.21
2018-12-10T09:29:01.700Z,49.29
2018-12-10T09:31:30.222Z,49.13
2018-12-10T09:33:58.637Z,47.97
2018-12-10T09:36:26.996Z,50.17
2018-12-10T09:38:55.261Z,49.26
2018-12-10T09:41:24.162Z,49.14
2018-12-10T09:43:52.915Z,49.36
2018-12-10T09:46:27.437Z,48.16
2018-12-10T09:48:51.519Z,50.47
2018-12-10T09:51:20.008Z,49.75
2018-12-10T09:53:48.338Z,47.13
2018-12-10T09:56:16.763Z,48.66
2018-12-10T09:58:45.208Z,48.71
2018-12-10T10:01:13.653Z,47.70
2018-12-10T10:03:41.986Z,48.50
2018-12-10T10:06:10.521Z,49.38
2018-12-10T10:08:38.826Z,48.17
2018-12-10T10:11:07.152Z,49.65
2018-12-10T10:13:35.410Z,49.10
2018-12-10T10:16:03.752Z,49.80
2018-12-10T10:18:32.091Z,50.87
2018-12-10T10:21:00.507Z,50.15
2018-12-10T10:23:28.808Z,51.74
2018-12-10T10:25:57.174Z,49.65
2018-12-10T10:28:25.770Z,49.23
2018-12-10T10:30:54.080Z,50.18
2018-12-10T10:33:22.447Z,49.44
2018-12-10T10:35:50.738Z,49.68
2018-12-10T10:38:19.035Z,47.07
2018-12-10T10:40:47.326Z,46.04
2018-12-10T10:43:15.765Z,48.64
2018-12-10T10:45:44.182Z,46.47
2018-12-10T10:48:12.467Z,45.92
2018-12-10T10:50:40.756Z,47.84
2018-12-10T10:53:09.095Z,49.18
2018-12-10T10:55:37.625Z,49.57
2018-12-10T10:58:06.140Z,48.43
2018-12-10T11:00:39.974Z,47.27
2018-12-10T11:03:15.491Z,48.82
2018-12-10T11:05:43.952Z,46.47
2018-12-10T11:08:12.228Z,47.52
2018-12-10T11:10:41.182Z,47.36
2018-12-10T11:13:09.733Z,45.65
2018-12-10T11:15:38.306Z,47.57
2018-12-10T11:18:07.810Z,46.25
2018-12-10T11:20:37.157Z,46.24
2018-12-10T11:23:05.601Z,47.91
2018-12-10T11:25:36.182Z,46.74
2018-12-10T11:28:07.851Z,49.63
2018-12-10T11:30:36.296Z,47.23
2018-12-10T11:33:04.744Z,46.93
2018-12-10T11:35:33.037Z,47.32
2018-12-10T11:38:01.400Z,48.87
2018-12-10T11:40:29.797Z,46.93
2018-12-10T11:42:58.086Z,45.08
2018-12-10T11:45:27.590Z,45.83
2018-12-10T11:47:55.990Z,48.72
2018-12-10T11:50:24.414Z,47.00
2018-12-10T11:52:53.216Z,47.84
2018-12-10T11:55:21.471Z,48.31
2018-12-10T11:57:49.732Z,48.98
2018-12-10T12:00:18.002Z,49.40
2018-12-10T12:02:46.246Z,48.92
2018-12-10T12:05:14.568Z,46.40
2018-12-10T12:07:42.857Z,44.64
2018-12-10T12:10:11.373Z,46.69
2018-12-10T12:12:39.878Z,45.45
2018-12-10T12:15:08.337Z,47.10
2018-12-10T12:17:37.373Z,46.49
2018-12-10T12:20:07.656Z,47.48
2018-12-10T12:22:35.943Z,44.65
2018-12-10T12:25:04.550Z,47.39
2018-12-10T12:27:32.794Z,49.17
2018-12-10T12:30:01.296Z,45.54
2018-12-10T12:32:29.717Z,44.35
2018-12-10T12:34:58.042Z,48.21
2018-12-10T12:37:26.303Z,48.07
2018-12-10T12:39:54.625Z,48.01
2018-12-10T12:42:22.931Z,49.15
2018-12-10T12:44:51.207Z,50.19
2018-12-10T12:47:19.603Z,49.22
2018-12-10T12:49:47.978Z,47.36
2018-12-10T12:52:16.481Z,48.05
2018-12-10T12:54:44.779Z,47.31
2018-12-10T12:57:13.131Z,47.39
2018-12-10T12:59:41.494Z,46.42
2018-12-10T13:02:09.740Z,44.66
2018-12-10T13:04:38.045Z,46.02
2018-12-10T13:07:06.285Z,46.49
2018-12-10T13:09:34.563Z,44.61
2018-12-10T13:12:02.852Z,46.64
2018-12-10T13:14:31.159Z,45.21
2018-12-10T13:16:59.772Z,43.98
2018-12-10T13:19:29.702Z,46.75
2018-12-10T13:21:58.398Z,47.04
2018-12-10T13:24:26.645Z,46.13
2018-12-10T13:26:54.969Z,45.52
2018-12-10T13:29:31.041Z,41.85
2018-12-10T13:31:54.080Z,39.26
2018-12-10T13:34:22.365Z,37.32
2018-12-10T13:36:50.802Z,34.37
2018-12-10T13:39:19.161Z,34.88
2018-12-10T13:41:47.637Z,38.71
2018-12-10T13:44:16.082Z,36.54
2018-12-10T13:46:44.396Z,36.86
2018-12-10T13:49:12.652Z,36.34
2018-12-10T13:51:41.065Z,34.60
2018-12-10T13:54:09.686Z,33.99
2018-12-10T13:56:38.060Z,34.09
2018-12-10T13:59:06.664Z,35.71
2018-12-10T14:01:34.977Z,35.72
2018-12-10T14:04:07.318Z,33.84
2018-12-10T14:06:35.728Z,35.31
2018-12-10T14:09:08.009Z,36.14
2018-12-10T14:11:35.029Z,34.01
2018-12-10T14:14:03.534Z,37.11
2018-12-10T14:16:31.891Z,38.10
2018-12-10T14:19:00.291Z,38.71
2018-12-10T14:21:28.573Z,40.47
2018-12-10T14:23:57.130Z,39.67
2018-12-10T14:26:25.638Z,39.55
2018-12-10T14:28:54.039Z,39.13
2018-12-10T14:31:27.255Z,38.62
2018-12-10T14:33:52.777Z,41.51
2018-12-10T14:36:21.050Z,40.46
2018-12-10T14:38:49.356Z,40.84
2018-12-10T14:41:17.741Z,39.81
2018-12-10T14:43:46.178Z,40.13
2018-12-10T14:46:14.517Z,40.30
2018-12-10T14:48:42.775Z,41.63
2018-12-10T14:51:11.251Z,41.57
2018-12-10T14:53:39.566Z,42.54
2018-12-10T14:56:07.937Z,40.29
2018-12-10T14:58:36.457Z,40.73
2018-12-10T15:01:04.817Z,41.60
2018-12-10T15:03:33.133Z,40.98
2018-12-10T15:06:01.430Z,40.63
2018-12-10T15:08:29.790Z,43.13
2018-12-10T15:10:58.167Z,42.90
2018-12-10T15:13:26.467Z,44.14
2018-12-10T15:15:54.973Z,43.53
2018-12-10T15:18:23.310Z,44.24
2018-12-10T15:20:51.610Z,44.34
2018-12-10T15:23:20.055Z,43.66
2018-12-10T15:25:48.460Z,44.28
2018-12-10T15:28:16.916Z,42.58
2018-12-10T15:30:45.374Z,43.58
2018-12-10T15:33:13.735Z,43.57
2018-12-10T15:35:42.152Z,43.43
2018-12-10T15:38:10.511Z,44.45
2018-12-10T15:40:38.854Z,41.25
2018-12-10T15:43:07.216Z,43.75
2018-12-10T15:45:35.483Z,42.89
2018-12-10T15:48:03.758Z,44.08
2018-12-10T15:50:32.279Z,46.09
2018-12-10T15:53:00.630Z,45.55
2018-12-10T15:55:29.036Z,45.15
2018-12-10T15:57:57.382Z,45.08
2018-12-10T16:00:25.878Z,43.17
2018-12-10T16:02:54.464Z,44.43
2018-12-10T16:05:22.960Z,44.11
2018-12-10T16:07:52.828Z,46.31
2018-12-10T16:10:25.043Z,46.44
2018-12-10T16:12:53.780Z,47.31
2018-12-10T16:15:22.339Z,47.42
2018-12-10T16:17:51.030Z,47.34
2018-12-10T16:20:27.298Z,45.91
2018-12-10T16:22:56.861Z,45.19
2018-12-10T16:25:29.102Z,47.05
2018-12-10T16:28:00.840Z,46.19
2018-12-10T16:30:32.218Z,46.51
2018-12-10T16:33:05.061Z,44.63
2018-12-10T16:35:36.275Z,45.71
2018-12-10T16:38:06.806Z,44.20
2018-12-10T16:40:38.599Z,45.93
2018-12-10T16:43:08.449Z,46.88
2018-12-10T16:45:38.175Z,46.39
2018-12-10T16:48:09.183Z,47.60
2018-12-10T16:50:38.811Z,47.25
2018-12-10T16:53:07.401Z,47.05
2018-12-10T16:55:36.435Z,46.30
2018-12-10T16:58:05.602Z,47.83
2018-12-10T17:00:36.814Z,48.26
2018-12-10T17:03:06.293Z,47.93
2018-12-10T17:05:36.464Z,48.53
2018-12-10T17:08:05.105Z,47.79
2018-12-10T17:10:35.178Z,47.47
2018-12-10T17:13:05.328Z,48.68
2018-12-10T17:15:35.145Z,48.71
2018-12-10T17:18:05.311Z,47.33
2018-12-10T17:20:35.867Z,47.28
2018-12-10T17:23:05.419Z,48.75
2018-12-10T17:25:38.312Z,47.26
2018-12-10T17:28:07.891Z,47.22
2018-12-10T17:30:36.682Z,48.15
2018-12-10T17:33:09.747Z,48.19
2018-12-10T17:35:39.796Z,48.35
2018-12-10T17:38:08.768Z,48.17
2018-12-10T17:40:40.492Z,47.71
2018-12-10T17:43:10.298Z,47.31
2018-12-10T17:45:38.970Z,47.41
2018-12-10T17:48:07.750Z,46.93
2018-12-10T17:50:36.410Z,48.48
2018-12-10T17:53:05.467Z,47.85
2018-12-10T17:55:34.489Z,47.38
2018-12-10T17:58:04.694Z,47.71
2018-12-10T18:00:35.858Z,45.58
2018-12-10T18:03:06.522Z,45.38
2018-12-10T18:05:37.369Z,47.57
2018-12-10T18:08:06.892Z,49.09
2018-12-10T18:10:35.836Z,49.04
2018-12-10T18:13:05.565Z,48.39
2018-12-10T18:15:36.143Z,46.79
2018-12-10T18:18:06.093Z,48.16
2018-12-10T18:20:34.739Z,49.24
2018-12-10T18:23:04.933Z,50.48
2018-12-10T18:25:33.929Z,51.09
2018-12-10T18:28:05.033Z,49.46
2018-12-10T18:30:34.592Z,49.12
2018-12-10T18:33:05.665Z,48.80
2018-12-10T18:35:36.972Z,49.37
2018-12-10T18:38:06.199Z,50.19
2018-12-10T18:40:35.398Z,48.91
2018-12-10T18:43:04.370Z,53.21
2018-12-10T18:45:35.353Z,54.37
2018-12-10T18:48:05.311Z,59.53
2018-12-10T18:50:35.196Z,61.15
2018-12-10T18:53:04.104Z,62.58
2018-12-10T18:55:34.307Z,62.76
2018-12-10T18:58:05.755Z,63.30
2018-12-10T19:00:35.243Z,63.78
2018-12-10T19:03:03.868Z,63.44
2018-12-10T19:05:33.027Z,62.38
2018-12-10T19:08:01.675Z,62.55
2018-12-10T19:10:31.369Z,59.73
2018-12-10T19:13:00.524Z,61.42
2018-12-10T19:15:30.512Z,60.28
2018-12-10T19:18:01.481Z,59.62
2018-12-10T19:20:32.068Z,59.29
2018-12-10T19:23:04.082Z,60.52
2018-12-10T19:25:34.042Z,59.86
2018-12-10T19:28:04.098Z,60.89
2018-12-10T19:30:34.982Z,60.28
2018-12-10T19:33:05.134Z,60.73
2018-12-10T19:35:33.949Z,58.37
2018-12-10T19:38:02.706Z,59.03
2018-12-10T19:40:31.900Z,57.35
2018-12-10T19:43:00.783Z,58.16
2018-12-10T19:45:30.354Z,56.75
2018-12-10T19:47:59.601Z,56.59
2018-12-10T19:50:30.277Z,55.90
2018-12-10T19:52:58.704Z,55.48
2018-12-10T19:55:29.139Z,56.15
2018-12-10T19:57:57.769Z,57.40
2018-12-10T20:00:26.392Z,55.66
2018-12-10T20:02:56.032Z,54.98
2018-12-10T20:05:31.077Z,58.21
2018-12-10T20:08:01.716Z,56.36
2018-12-10T20:10:30.259Z,55.49
2018-12-10T20:12:59.150Z,55.06
2018-12-10T20:15:28.176Z,56.88
2018-12-10T20:17:57.351Z,56.98
2018-12-10T20:20:26.023Z,59.93
2018-12-10T20:22:54.645Z,59.66
2018-12-10T20:25:23.164Z,58.53
2018-12-10T20:27:52.599Z,59.24
2018-12-10T20:30:21.511Z,59.23
2018-12-10T20:32:50.810Z,58.70
2018-12-10T20:35:20.328Z,57.91
2018-12-10T20:37:48.784Z,58.30
2018-12-10T20:40:17.649Z,58.09
2018-12-10T20:42:47.444Z,58.62
2018-12-10T20:45:16.104Z,58.40
2018-12-10T20:47:45.935Z,59.38
2018-12-10T20:50:14.672Z,57.62
2018-12-10T20:52:45.915Z,57.36
2018-12-10T20:55:14.310Z,55.47
2018-12-10T20:57:42.764Z,56.74
2018-12-10T21:00:11.466Z,56.70
2018-12-10T21:02:39.821Z,57.48
2018-12-10T21:05:08.210Z,56.17
2018-12-10T21:07:36.582Z,54.92
2018-12-10T21:10:05.685Z,57.52
2018-12-10T21:12:33.960Z,59.12
2018-12-10T21:15:02.319Z,55.56
2018-12-10T21:17:30.807Z,55.68
2018-12-10T21:19:59.067Z,55.35
2018-12-10T21:22:27.382Z,57.27
2018-12-10T21:24:57.494Z,55.96
2018-12-10T21:27:27.110Z,56.68
2018-12-10T21:29:55.698Z,56.78
2018-12-10T21:32:24.145Z,54.68
2018-12-10T21:34:52.615Z,54.93
2018-12-10T21:37:21.011Z,54.69
2018-12-10T21:39:49.483Z,53.49
2018-12-10T21:42:20.062Z,54.30
2018-12-10T21:44:53.545Z,52.52
2018-12-10T21:47:22.113Z,51.46
2018-12-10T21:49:50.897Z,51.82
2018-12-10T21:52:19.182Z,52.22
2018-12-10T21:54:47.944Z,52.81
2018-12-10T21:57:16.391Z,54.08
2018-12-10T21:59:44.749Z,55.76
2018-12-10T22:02:15.034Z,54.52
2018-12-10T22:04:43.489Z,55.67
2018-12-10T22:07:11.952Z,55.36
2018-12-10T22:09:40.247Z,55.16
2018-12-10T22:12:08.884Z,57.25
2018-12-10T22:14:40.441Z,56.12
2018-12-10T22:17:08.845Z,55.19
2018-12-10T22:19:37.158Z,53.94
2018-12-10T22:22:05.545Z,54.05
2018-12-10T22:24:33.826Z,53.73
2018-12-10T22:27:02.175Z,53.48
2018-12-10T22:29:31.510Z,55.58
2018-12-10T22:31:59.792Z,53.81
2018-12-10T22:34:28.089Z,54.34
2018-12-10T22:36:57.828Z,56.35
2018-12-10T22:39:26.613Z,54.96
2018-12-10T22:41:54.904Z,53.20
2018-12-10T22:44:23.221Z,55.00
2018-12-10T22:46:51.568Z,54.24
2018-12-10T22:49:20.053Z,54.29
2018-12-10T22:51:48.325Z,53.87
2018-12-10T22:54:16.634Z,54.33
2018-12-10T22:56:44.897Z,54.35
2018-12-10T22:59:13.174Z,52.92
2018-12-10T23:01:41.492Z,54.11
2018-12-10T23:04:12.173Z,53.39
2018-12-10T23:06:40.446Z,53.40
2018-12-10T23:09:08.932Z,52.85
2018-12-10T23:11:37.693Z,52.35
2018-12-10T23:14:06.127Z,53.25
2018-12-10T23:16:34.379Z,52.39
2018-12-10T23:19:02.771Z,53.42
2018-12-10T23:21:31.103Z,52.62
2018-12-10T23:23:59.534Z,53.16
2018-12-10T23:26:27.834Z,55.07
2018-12-10T23:28:56.207Z,52.10
2018-12-10T23:31:24.432Z,53.98
2018-12-10T23:33:53.043Z,52.71
2018-12-10T23:36:21.303Z,52.10
2018-12-10T23:38:49.732Z,52.13
2018-12-10T23:41:18.049Z,51.61
2018-12-10T23:43:46.602Z,51.12
2018-12-10T23:46:15.018Z,51.86
2018-12-10T23:48:43.268Z,49.99
2018-12-10T23:51:11.688Z,50.07
2018-12-10T23:53:40.071Z,49.19
2018-12-10T23:56:08.369Z,48.83
2018-12-10T23:58:36.834Z,48.29
